sensor_id;sensor_type;location;lat;lon;timestamp;P1;durP1;ratioP1;P2;durP2;ratioP2
11123;SDS011;5616;42.692;23.312;2022-11-13T00:01:49;10.70;;;7.00;;
11123;SDS011;5616;42.692;23.312;2022-11-13T00:04:34;7.77;;;6.97;;
11123;SDS011;5616;42.692;23.312;2022-11-13T00:07:20;9.80;;;7.83;;
11123;SDS011;5616;42.692;23.312;2022-11-13T00:10:07;9.50;;;7.00;;
11123;SDS011;5616;42.692;23.312;2022-11-13T00:12:52;8.33;;;7.43;;
11123;SDS011;5616;42.692;23.312;2022-11-13T00:15:38;8.40;;;7.43;;
11123;SDS011;5616;42.692;23.312;2022-11-13T00:18:24;9.67;;;7.50;;
11123;SDS011;5616;42.692;23.312;2022-11-13T00:21:10;7.93;;;7.00;;
11123;SDS011;5616;42.692;23.312;2022-11-13T00:23:57;9.57;;;7.10;;
11123;SDS011;5616;42.692;23.312;2022-11-13T00:26:44;9.90;;;7.07;;
11123;SDS011;5616;42.692;23.312;2022-11-13T00:29:29;9.93;;;7.33;;
11123;SDS011;5616;42.692;23.312;2022-11-13T00:32:15;9.13;;;7.50;;
11123;SDS011;5616;42.692;23.312;2022-11-13T00:35:00;8.57;;;6.80;;
11123;SDS011;5616;42.692;23.312;2022-11-13T00:37:46;8.10;;;6.93;;
11123;SDS011;5616;42.692;23.312;2022-11-13T00:40:31;8.17;;;7.17;;
11123;SDS011;5616;42.692;23.312;2022-11-13T00:43:18;7.83;;;6.90;;
11123;SDS011;5616;42.692;23.312;2022-11-13T00:46:03;7.60;;;6.90;;
11123;SDS011;5616;42.692;23.312;2022-11-13T00:48:49;9.30;;;7.17;;
11123;SDS011;5616;42.692;23.312;2022-11-13T00:51:34;11.07;;;7.77;;
11123;SDS011;5616;42.692;23.312;2022-11-13T00:54:19;10.70;;;6.73;;
11123;SDS011;5616;42.692;23.312;2022-11-13T00:57:05;8.73;;;7.00;;
11123;SDS011;5616;42.692;23.312;2022-11-13T00:59:51;9.47;;;7.20;;
11123;SDS011;5616;42.692;23.312;2022-11-13T01:02:37;8.13;;;6.73;;
11123;SDS011;5616;42.692;23.312;2022-11-13T01:05:22;8.00;;;6.87;;
11123;SDS011;5616;42.692;23.312;2022-11-13T01:08:08;8.60;;;6.87;;
11123;SDS011;5616;42.692;23.312;2022-11-13T01:10:53;7.60;;;6.80;;
11123;SDS011;5616;42.692;23.312;2022-11-13T01:13:39;8.73;;;6.90;;
11123;SDS011;5616;42.692;23.312;2022-11-13T01:16:27;8.57;;;7.00;;
11123;SDS011;5616;42.692;23.312;2022-11-13T01:19:12;7.67;;;6.60;;
11123;SDS011;5616;42.692;23.312;2022-11-13T01:21:57;9.33;;;7.13;;
11123;SDS011;5616;42.692;23.312;2022-11-13T01:24:43;10.07;;;7.43;;
11123;SDS011;5616;42.692;23.312;2022-11-13T01:27:28;7.30;;;6.60;;
11123;SDS011;5616;42.692;23.312;2022-11-13T01:30:13;8.87;;;6.80;;
11123;SDS011;5616;42.692;23.312;2022-11-13T01:33:00;7.63;;;6.50;;
11123;SDS011;5616;42.692;23.312;2022-11-13T01:35:45;8.50;;;7.40;;
11123;SDS011;5616;42.692;23.312;2022-11-13T01:38:31;12.20;;;7.40;;
11123;SDS011;5616;42.692;23.312;2022-11-13T01:41:17;10.17;;;6.80;;
11123;SDS011;5616;42.692;23.312;2022-11-13T01:44:05;8.47;;;6.83;;
11123;SDS011;5616;42.692;23.312;2022-11-13T01:46:55;8.87;;;6.70;;
11123;SDS011;5616;42.692;23.312;2022-11-13T01:49:42;8.03;;;7.20;;
11123;SDS011;5616;42.692;23.312;2022-11-13T01:52:30;7.80;;;7.00;;
11123;SDS011;5616;42.692;23.312;2022-11-13T01:55:17;7.43;;;6.73;;
11123;SDS011;5616;42.692;23.312;2022-11-13T01:58:03;7.83;;;7.00;;
11123;SDS011;5616;42.692;23.312;2022-11-13T02:00:52;9.30;;;7.23;;
11123;SDS011;5616;42.692;23.312;2022-11-13T02:03:37;7.80;;;6.97;;
11123;SDS011;5616;42.692;23.312;2022-11-13T02:06:24;7.90;;;6.70;;
11123;SDS011;5616;42.692;23.312;2022-11-13T02:09:14;7.83;;;6.30;;
11123;SDS011;5616;42.692;23.312;2022-11-13T02:12:01;8.90;;;6.30;;
11123;SDS011;5616;42.692;23.312;2022-11-13T02:14:50;8.17;;;6.33;;
11123;SDS011;5616;42.692;23.312;2022-11-13T02:17:39;9.20;;;6.20;;
11123;SDS011;5616;42.692;23.312;2022-11-13T02:20:29;8.93;;;6.27;;
11123;SDS011;5616;42.692;23.312;2022-11-13T02:23:22;7.13;;;6.13;;
11123;SDS011;5616;42.692;23.312;2022-11-13T02:26:13;7.87;;;6.43;;
11123;SDS011;5616;42.692;23.312;2022-11-13T02:29:00;6.90;;;6.20;;
11123;SDS011;5616;42.692;23.312;2022-11-13T02:31:45;7.43;;;6.47;;
11123;SDS011;5616;42.692;23.312;2022-11-13T02:34:31;7.47;;;6.07;;
11123;SDS011;5616;42.692;23.312;2022-11-13T02:37:16;7.33;;;5.90;;
11123;SDS011;5616;42.692;23.312;2022-11-13T02:40:02;7.00;;;6.30;;
11123;SDS011;5616;42.692;23.312;2022-11-13T02:42:49;9.80;;;6.90;;
11123;SDS011;5616;42.692;23.312;2022-11-13T02:45:34;7.43;;;6.40;;
11123;SDS011;5616;42.692;23.312;2022-11-13T02:48:21;7.87;;;6.40;;
11123;SDS011;5616;42.692;23.312;2022-11-13T02:51:06;9.13;;;6.27;;
11123;SDS011;5616;42.692;23.312;2022-11-13T02:53:52;9.43;;;6.97;;
11123;SDS011;5616;42.692;23.312;2022-11-13T02:56:37;7.03;;;6.13;;
11123;SDS011;5616;42.692;23.312;2022-11-13T02:59:24;6.87;;;6.17;;
11123;SDS011;5616;42.692;23.312;2022-11-13T03:02:09;8.90;;;6.03;;
11123;SDS011;5616;42.692;23.312;2022-11-13T03:04:54;8.07;;;6.53;;
11123;SDS011;5616;42.692;23.312;2022-11-13T03:07:40;8.27;;;6.50;;
11123;SDS011;5616;42.692;23.312;2022-11-13T03:10:26;7.80;;;6.37;;
11123;SDS011;5616;42.692;23.312;2022-11-13T03:13:12;7.60;;;6.43;;
11123;SDS011;5616;42.692;23.312;2022-11-13T03:16:04;7.77;;;7.07;;
11123;SDS011;5616;42.692;23.312;2022-11-13T03:18:51;7.13;;;6.43;;
11123;SDS011;5616;42.692;23.312;2022-11-13T03:21:36;7.00;;;6.10;;
11123;SDS011;5616;42.692;23.312;2022-11-13T03:24:22;8.63;;;6.47;;
11123;SDS011;5616;42.692;23.312;2022-11-13T03:27:08;7.90;;;6.73;;
11123;SDS011;5616;42.692;23.312;2022-11-13T03:29:53;7.40;;;6.47;;
11123;SDS011;5616;42.692;23.312;2022-11-13T03:32:40;6.47;;;5.77;;
11123;SDS011;5616;42.692;23.312;2022-11-13T03:35:26;7.37;;;6.23;;
11123;SDS011;5616;42.692;23.312;2022-11-13T03:38:11;8.17;;;6.17;;
11123;SDS011;5616;42.692;23.312;2022-11-13T03:40:57;16.58;;;6.60;;
11123;SDS011;5616;42.692;23.312;2022-11-13T03:43:42;9.43;;;7.80;;
11123;SDS011;5616;42.692;23.312;2022-11-13T03:46:28;7.97;;;7.17;;
11123;SDS011;5616;42.692;23.312;2022-11-13T03:49:14;8.57;;;7.00;;
11123;SDS011;5616;42.692;23.312;2022-11-13T03:52:00;7.83;;;6.53;;
11123;SDS011;5616;42.692;23.312;2022-11-13T03:54:45;7.33;;;6.47;;
11123;SDS011;5616;42.692;23.312;2022-11-13T03:57:31;7.87;;;6.97;;
11123;SDS011;5616;42.692;23.312;2022-11-13T04:00:16;10.10;;;7.37;;
11123;SDS011;5616;42.692;23.312;2022-11-13T04:03:02;9.87;;;6.20;;
11123;SDS011;5616;42.692;23.312;2022-11-13T04:05:49;7.33;;;6.63;;
11123;SDS011;5616;42.692;23.312;2022-11-13T04:08:35;7.97;;;7.05;;
11123;SDS011;5616;42.692;23.312;2022-11-13T04:11:20;9.37;;;7.17;;
11123;SDS011;5616;42.692;23.312;2022-11-13T04:14:06;7.97;;;7.17;;
11123;SDS011;5616;42.692;23.312;2022-11-13T04:16:51;10.67;;;6.47;;
11123;SDS011;5616;42.692;23.312;2022-11-13T04:19:37;7.93;;;6.30;;
11123;SDS011;5616;42.692;23.312;2022-11-13T04:22:23;7.33;;;6.60;;
11123;SDS011;5616;42.692;23.312;2022-11-13T04:25:09;7.97;;;7.17;;
11123;SDS011;5616;42.692;23.312;2022-11-13T04:27:54;7.70;;;6.43;;
11123;SDS011;5616;42.692;23.312;2022-11-13T04:30:39;9.23;;;7.17;;
11123;SDS011;5616;42.692;23.312;2022-11-13T04:33:25;10.07;;;7.17;;
11123;SDS011;5616;42.692;23.312;2022-11-13T04:36:10;8.17;;;6.97;;
11123;SDS011;5616;42.692;23.312;2022-11-13T04:38:57;8.07;;;6.87;;
11123;SDS011;5616;42.692;23.312;2022-11-13T04:41:42;8.50;;;7.53;;
11123;SDS011;5616;42.692;23.312;2022-11-13T04:44:45;10.33;;;8.00;;
11123;SDS011;5616;42.692;23.312;2022-11-13T04:47:31;10.03;;;8.53;;
11123;SDS011;5616;42.692;23.312;2022-11-13T04:50:16;9.77;;;8.20;;
11123;SDS011;5616;42.692;23.312;2022-11-13T04:53:01;9.67;;;8.67;;
11123;SDS011;5616;42.692;23.312;2022-11-13T04:55:48;11.20;;;8.63;;
11123;SDS011;5616;42.692;23.312;2022-11-13T04:58:35;13.60;;;10.40;;
11123;SDS011;5616;42.692;23.312;2022-11-13T05:01:21;12.00;;;10.57;;
11123;SDS011;5616;42.692;23.312;2022-11-13T05:04:08;14.10;;;11.17;;
11123;SDS011;5616;42.692;23.312;2022-11-13T05:06:56;13.50;;;11.17;;
11123;SDS011;5616;42.692;23.312;2022-11-13T05:09:41;14.43;;;12.17;;
11123;SDS011;5616;42.692;23.312;2022-11-13T05:12:28;16.30;;;11.97;;
11123;SDS011;5616;42.692;23.312;2022-11-13T05:15:13;14.50;;;12.40;;
11123;SDS011;5616;42.692;23.312;2022-11-13T05:17:59;14.67;;;12.43;;
11123;SDS011;5616;42.692;23.312;2022-11-13T05:20:44;14.83;;;13.23;;
11123;SDS011;5616;42.692;23.312;2022-11-13T05:23:30;14.57;;;12.47;;
11123;SDS011;5616;42.692;23.312;2022-11-13T05:26:16;15.73;;;12.90;;
11123;SDS011;5616;42.692;23.312;2022-11-13T05:29:03;18.10;;;13.37;;
11123;SDS011;5616;42.692;23.312;2022-11-13T05:31:49;15.80;;;13.10;;
11123;SDS011;5616;42.692;23.312;2022-11-13T05:34:34;16.63;;;13.50;;
11123;SDS011;5616;42.692;23.312;2022-11-13T05:37:20;16.93;;;13.73;;
11123;SDS011;5616;42.692;23.312;2022-11-13T05:40:06;16.63;;;13.23;;
11123;SDS011;5616;42.692;23.312;2022-11-13T05:42:52;15.53;;;13.37;;
11123;SDS011;5616;42.692;23.312;2022-11-13T05:45:38;18.17;;;14.37;;
11123;SDS011;5616;42.692;23.312;2022-11-13T05:48:24;16.07;;;14.27;;
11123;SDS011;5616;42.692;23.312;2022-11-13T05:51:10;15.57;;;13.20;;
11123;SDS011;5616;42.692;23.312;2022-11-13T05:54:01;16.30;;;13.53;;
11123;SDS011;5616;42.692;23.312;2022-11-13T05:56:46;15.27;;;13.27;;
11123;SDS011;5616;42.692;23.312;2022-11-13T05:59:31;15.20;;;13.63;;
11123;SDS011;5616;42.692;23.312;2022-11-13T06:02:18;16.67;;;13.97;;
11123;SDS011;5616;42.692;23.312;2022-11-13T06:05:05;15.83;;;13.43;;
11123;SDS011;5616;42.692;23.312;2022-11-13T06:07:50;14.30;;;12.57;;
11123;SDS011;5616;42.692;23.312;2022-11-13T06:10:36;17.30;;;14.00;;
11123;SDS011;5616;42.692;23.312;2022-11-13T06:13:22;15.67;;;13.23;;
11123;SDS011;5616;42.692;23.312;2022-11-13T06:16:08;16.77;;;13.63;;
11123;SDS011;5616;42.692;23.312;2022-11-13T06:18:56;17.73;;;13.77;;
11123;SDS011;5616;42.692;23.312;2022-11-13T06:21:42;17.27;;;14.20;;
11123;SDS011;5616;42.692;23.312;2022-11-13T06:24:27;15.70;;;12.43;;
11123;SDS011;5616;42.692;23.312;2022-11-13T06:27:13;14.63;;;12.20;;
11123;SDS011;5616;42.692;23.312;2022-11-13T06:29:58;17.60;;;12.40;;
11123;SDS011;5616;42.692;23.312;2022-11-13T06:32:44;16.60;;;12.43;;
11123;SDS011;5616;42.692;23.312;2022-11-13T06:35:30;17.83;;;13.53;;
11123;SDS011;5616;42.692;23.312;2022-11-13T06:38:16;16.90;;;12.70;;
11123;SDS011;5616;42.692;23.312;2022-11-13T06:41:02;16.83;;;13.73;;
11123;SDS011;5616;42.692;23.312;2022-11-13T06:43:47;17.47;;;12.17;;
11123;SDS011;5616;42.692;23.312;2022-11-13T06:46:34;15.40;;;12.90;;
11123;SDS011;5616;42.692;23.312;2022-11-13T06:49:19;15.30;;;12.67;;
11123;SDS011;5616;42.692;23.312;2022-11-13T06:52:06;16.10;;;13.30;;
11123;SDS011;5616;42.692;23.312;2022-11-13T06:54:51;15.70;;;12.73;;
11123;SDS011;5616;42.692;23.312;2022-11-13T06:57:37;16.63;;;12.87;;
11123;SDS011;5616;42.692;23.312;2022-11-13T07:00:22;17.67;;;13.83;;
11123;SDS011;5616;42.692;23.312;2022-11-13T07:06:09;17.40;;;12.70;;
11123;SDS011;5616;42.692;23.312;2022-11-13T07:08:58;16.87;;;13.00;;
11123;SDS011;5616;42.692;23.312;2022-11-13T07:11:43;17.20;;;13.30;;
11123;SDS011;5616;42.692;23.312;2022-11-13T07:14:29;17.00;;;13.33;;
11123;SDS011;5616;42.692;23.312;2022-11-13T07:17:14;16.10;;;12.67;;
11123;SDS011;5616;42.692;23.312;2022-11-13T07:19:59;15.93;;;12.53;;
11123;SDS011;5616;42.692;23.312;2022-11-13T07:22:45;16.23;;;12.93;;
11123;SDS011;5616;42.692;23.312;2022-11-13T07:25:31;17.77;;;13.90;;
11123;SDS011;5616;42.692;23.312;2022-11-13T07:28:17;15.00;;;12.17;;
11123;SDS011;5616;42.692;23.312;2022-11-13T07:31:02;15.00;;;11.77;;
11123;SDS011;5616;42.692;23.312;2022-11-13T07:33:48;16.30;;;12.70;;
11123;SDS011;5616;42.692;23.312;2022-11-13T07:36:35;16.47;;;12.50;;
11123;SDS011;5616;42.692;23.312;2022-11-13T07:39:20;18.20;;;13.10;;
11123;SDS011;5616;42.692;23.312;2022-11-13T07:42:07;14.27;;;11.87;;
11123;SDS011;5616;42.692;23.312;2022-11-13T07:44:52;16.80;;;12.60;;
11123;SDS011;5616;42.692;23.312;2022-11-13T07:47:38;15.90;;;12.57;;
11123;SDS011;5616;42.692;23.312;2022-11-13T07:50:24;16.13;;;12.27;;
11123;SDS011;5616;42.692;23.312;2022-11-13T07:53:09;17.07;;;12.83;;
11123;SDS011;5616;42.692;23.312;2022-11-13T07:55:55;17.03;;;13.50;;
11123;SDS011;5616;42.692;23.312;2022-11-13T07:58:45;18.23;;;14.23;;
11123;SDS011;5616;42.692;23.312;2022-11-13T08:01:31;17.33;;;13.13;;
11123;SDS011;5616;42.692;23.312;2022-11-13T08:04:16;15.17;;;12.03;;
11123;SDS011;5616;42.692;23.312;2022-11-13T08:07:01;18.33;;;13.80;;
11123;SDS011;5616;42.692;23.312;2022-11-13T08:09:47;17.33;;;13.70;;
11123;SDS011;5616;42.692;23.312;2022-11-13T08:12:32;19.80;;;14.17;;
11123;SDS011;5616;42.692;23.312;2022-11-13T08:15:19;17.03;;;14.17;;
11123;SDS011;5616;42.692;23.312;2022-11-13T08:18:04;16.80;;;13.17;;
11123;SDS011;5616;42.692;23.312;2022-11-13T08:20:50;16.17;;;13.57;;
11123;SDS011;5616;42.692;23.312;2022-11-13T08:23:36;16.37;;;12.87;;
11123;SDS011;5616;42.692;23.312;2022-11-13T08:26:21;16.47;;;14.10;;
11123;SDS011;5616;42.692;23.312;2022-11-13T08:29:07;14.60;;;13.03;;
11123;SDS011;5616;42.692;23.312;2022-11-13T08:31:53;17.83;;;14.47;;
11123;SDS011;5616;42.692;23.312;2022-11-13T08:34:39;16.07;;;13.57;;
11123;SDS011;5616;42.692;23.312;2022-11-13T08:37:25;18.03;;;14.37;;
11123;SDS011;5616;42.692;23.312;2022-11-13T08:40:10;15.47;;;13.87;;
11123;SDS011;5616;42.692;23.312;2022-11-13T08:42:57;16.80;;;14.57;;
11123;SDS011;5616;42.692;23.312;2022-11-13T08:45:44;15.70;;;12.90;;
11123;SDS011;5616;42.692;23.312;2022-11-13T08:48:31;18.07;;;13.77;;
11123;SDS011;5616;42.692;23.312;2022-11-13T08:51:17;17.47;;;14.63;;
11123;SDS011;5616;42.692;23.312;2022-11-13T08:54:02;17.97;;;15.77;;
11123;SDS011;5616;42.692;23.312;2022-11-13T08:56:48;16.53;;;14.27;;
11123;SDS011;5616;42.692;23.312;2022-11-13T08:59:33;19.70;;;14.70;;
11123;SDS011;5616;42.692;23.312;2022-11-13T09:02:19;16.63;;;14.93;;
11123;SDS011;5616;42.692;23.312;2022-11-13T09:05:06;17.30;;;14.33;;
11123;SDS011;5616;42.692;23.312;2022-11-13T09:07:54;16.03;;;13.90;;
11123;SDS011;5616;42.692;23.312;2022-11-13T09:10:40;16.07;;;14.13;;
11123;SDS011;5616;42.692;23.312;2022-11-13T09:13:26;17.43;;;14.13;;
11123;SDS011;5616;42.692;23.312;2022-11-13T09:16:12;16.23;;;14.53;;
11123;SDS011;5616;42.692;23.312;2022-11-13T09:18:57;18.07;;;15.17;;
11123;SDS011;5616;42.692;23.312;2022-11-13T09:21:44;18.13;;;15.87;;
11123;SDS011;5616;42.692;23.312;2022-11-13T09:24:30;16.83;;;14.73;;
11123;SDS011;5616;42.692;23.312;2022-11-13T09:27:16;17.87;;;15.10;;
11123;SDS011;5616;42.692;23.312;2022-11-13T09:30:02;19.23;;;15.37;;
11123;SDS011;5616;42.692;23.312;2022-11-13T09:32:51;16.20;;;14.40;;
11123;SDS011;5616;42.692;23.312;2022-11-13T09:35:37;17.50;;;14.87;;
11123;SDS011;5616;42.692;23.312;2022-11-13T09:38:24;16.13;;;14.17;;
11123;SDS011;5616;42.692;23.312;2022-11-13T09:41:13;18.60;;;15.07;;
11123;SDS011;5616;42.692;23.312;2022-11-13T09:44:03;15.67;;;14.03;;
11123;SDS011;5616;42.692;23.312;2022-11-13T09:46:51;15.20;;;12.97;;
11123;SDS011;5616;42.692;23.312;2022-11-13T09:49:40;17.07;;;14.30;;
11123;SDS011;5616;42.692;23.312;2022-11-13T09:52:31;15.00;;;13.43;;
11123;SDS011;5616;42.692;23.312;2022-11-13T09:55:21;15.77;;;14.03;;
11123;SDS011;5616;42.692;23.312;2022-11-13T09:58:14;16.67;;;14.93;;
11123;SDS011;5616;42.692;23.312;2022-11-13T10:01:08;15.47;;;13.87;;
11123;SDS011;5616;42.692;23.312;2022-11-13T10:04:05;16.47;;;14.77;;
11123;SDS011;5616;42.692;23.312;2022-11-13T10:07:00;17.13;;;14.70;;
11123;SDS011;5616;42.692;23.312;2022-11-13T10:13:18;17.30;;;14.10;;
11123;SDS011;5616;42.692;23.312;2022-11-13T10:16:10;15.13;;;13.13;;
11123;SDS011;5616;42.692;23.312;2022-11-13T10:19:06;16.90;;;14.60;;
11123;SDS011;5616;42.692;23.312;2022-11-13T10:21:58;15.53;;;13.47;;
11123;SDS011;5616;42.692;23.312;2022-11-13T10:24:49;16.20;;;14.50;;
11123;SDS011;5616;42.692;23.312;2022-11-13T10:27:38;16.00;;;14.30;;
11123;SDS011;5616;42.692;23.312;2022-11-13T10:34:04;18.27;;;14.20;;
11123;SDS011;5616;42.692;23.312;2022-11-13T10:36:56;16.37;;;13.67;;
11123;SDS011;5616;42.692;23.312;2022-11-13T10:39:54;15.47;;;13.87;;
11123;SDS011;5616;42.692;23.312;2022-11-13T10:42:41;15.87;;;13.83;;
11123;SDS011;5616;42.692;23.312;2022-11-13T10:45:27;16.37;;;12.97;;
11123;SDS011;5616;42.692;23.312;2022-11-13T10:48:19;15.47;;;13.87;;
11123;SDS011;5616;42.692;23.312;2022-11-13T10:51:17;16.70;;;14.67;;
11123;SDS011;5616;42.692;23.312;2022-11-13T10:54:19;17.23;;;14.03;;
11123;SDS011;5616;42.692;23.312;2022-11-13T10:57:21;15.43;;;13.77;;
11123;SDS011;5616;42.692;23.312;2022-11-13T11:00:20;15.23;;;13.43;;
11123;SDS011;5616;42.692;23.312;2022-11-13T11:03:08;15.67;;;14.07;;
11123;SDS011;5616;42.692;23.312;2022-11-13T11:05:58;14.80;;;13.30;;
11123;SDS011;5616;42.692;23.312;2022-11-13T11:08:45;16.80;;;14.33;;
11123;SDS011;5616;42.692;23.312;2022-11-13T11:11:31;15.70;;;14.03;;
11123;SDS011;5616;42.692;23.312;2022-11-13T11:14:36;15.73;;;14.03;;
11123;SDS011;5616;42.692;23.312;2022-11-13T11:17:27;15.63;;;13.93;;
11123;SDS011;5616;42.692;23.312;2022-11-13T11:20:19;17.03;;;15.00;;
11123;SDS011;5616;42.692;23.312;2022-11-13T11:23:13;18.20;;;16.30;;
11123;SDS011;5616;42.692;23.312;2022-11-13T11:26:06;19.83;;;16.13;;
11123;SDS011;5616;42.692;23.312;2022-11-13T11:29:01;19.00;;;16.43;;
11123;SDS011;5616;42.692;23.312;2022-11-13T11:31:53;17.20;;;15.40;;
11123;SDS011;5616;42.692;23.312;2022-11-13T11:34:44;16.53;;;14.83;;
11123;SDS011;5616;42.692;23.312;2022-11-13T11:37:34;18.57;;;15.90;;
11123;SDS011;5616;42.692;23.312;2022-11-13T11:40:25;18.03;;;15.87;;
11123;SDS011;5616;42.692;23.312;2022-11-13T11:43:15;17.73;;;15.90;;
11123;SDS011;5616;42.692;23.312;2022-11-13T11:46:04;17.17;;;15.23;;
11123;SDS011;5616;42.692;23.312;2022-11-13T11:48:49;17.57;;;15.40;;
11123;SDS011;5616;42.692;23.312;2022-11-13T11:51:38;18.13;;;16.23;;
11123;SDS011;5616;42.692;23.312;2022-11-13T11:54:36;18.80;;;15.87;;
11123;SDS011;5616;42.692;23.312;2022-11-13T11:57:37;17.73;;;15.03;;
11123;SDS011;5616;42.692;23.312;2022-11-13T12:00:32;17.63;;;15.57;;
11123;SDS011;5616;42.692;23.312;2022-11-13T12:03:40;18.37;;;16.10;;
11123;SDS011;5616;42.692;23.312;2022-11-13T12:06:41;18.30;;;16.07;;
11123;SDS011;5616;42.692;23.312;2022-11-13T12:09:35;19.37;;;16.30;;
11123;SDS011;5616;42.692;23.312;2022-11-13T12:12:31;17.20;;;15.37;;
11123;SDS011;5616;42.692;23.312;2022-11-13T12:15:30;17.03;;;14.40;;
11123;SDS011;5616;42.692;23.312;2022-11-13T12:18:24;18.27;;;15.63;;
11123;SDS011;5616;42.692;23.312;2022-11-13T12:21:20;16.70;;;14.70;;
11123;SDS011;5616;42.692;23.312;2022-11-13T12:27:29;17.47;;;15.27;;
11123;SDS011;5616;42.692;23.312;2022-11-13T12:30:20;20.00;;;17.07;;
11123;SDS011;5616;42.692;23.312;2022-11-13T12:33:19;17.97;;;16.13;;
11123;SDS011;5616;42.692;23.312;2022-11-13T12:36:08;17.13;;;15.30;;
11123;SDS011;5616;42.692;23.312;2022-11-13T12:39:05;15.90;;;14.20;;
11123;SDS011;5616;42.692;23.312;2022-11-13T12:42:03;16.23;;;14.30;;
11123;SDS011;5616;42.692;23.312;2022-11-13T12:44:59;16.10;;;14.10;;
11123;SDS011;5616;42.692;23.312;2022-11-13T12:47:54;16.20;;;14.50;;
11123;SDS011;5616;42.692;23.312;2022-11-13T12:50:39;16.47;;;14.70;;
11123;SDS011;5616;42.692;23.312;2022-11-13T12:53:25;17.80;;;15.90;;
11123;SDS011;5616;42.692;23.312;2022-11-13T12:56:16;17.57;;;15.00;;
11123;SDS011;5616;42.692;23.312;2022-11-13T12:59:26;15.63;;;14.03;;
11123;SDS011;5616;42.692;23.312;2022-11-13T13:02:19;15.67;;;13.97;;
11123;SDS011;5616;42.692;23.312;2022-11-13T13:05:18;15.43;;;13.77;;
11123;SDS011;5616;42.692;23.312;2022-11-13T13:08:18;16.10;;;13.50;;
11123;SDS011;5616;42.692;23.312;2022-11-13T13:11:16;15.17;;;13.10;;
11123;SDS011;5616;42.692;23.312;2022-11-13T13:14:14;15.27;;;13.53;;
11123;SDS011;5616;42.692;23.312;2022-11-13T13:17:17;16.10;;;13.67;;
11123;SDS011;5616;42.692;23.312;2022-11-13T13:20:05;16.57;;;14.13;;
11123;SDS011;5616;42.692;23.312;2022-11-13T13:23:12;15.23;;;13.23;;
11123;SDS011;5616;42.692;23.312;2022-11-13T13:26:13;15.37;;;13.53;;
11123;SDS011;5616;42.692;23.312;2022-11-13T13:29:07;15.13;;;13.53;;
11123;SDS011;5616;42.692;23.312;2022-11-13T13:32:08;16.23;;;13.23;;
11123;SDS011;5616;42.692;23.312;2022-11-13T13:35:02;17.20;;;13.87;;
11123;SDS011;5616;42.692;23.312;2022-11-13T13:37:54;15.97;;;13.73;;
11123;SDS011;5616;42.692;23.312;2022-11-13T13:40:50;16.47;;;14.10;;
11123;SDS011;5616;42.692;23.312;2022-11-13T13:43:53;17.67;;;14.07;;
11123;SDS011;5616;42.692;23.312;2022-11-13T13:46:44;19.90;;;15.07;;
11123;SDS011;5616;42.692;23.312;2022-11-13T13:49:30;16.80;;;15.00;;
11123;SDS011;5616;42.692;23.312;2022-11-13T13:52:19;16.67;;;13.30;;
11123;SDS011;5616;42.692;23.312;2022-11-13T13:55:15;16.60;;;14.73;;
11123;SDS011;5616;42.692;23.312;2022-11-13T13:58:07;21.17;;;17.33;;
11123;SDS011;5616;42.692;23.312;2022-11-13T14:00:56;21.20;;;16.97;;
11123;SDS011;5616;42.692;23.312;2022-11-13T14:03:43;22.23;;;17.73;;
11123;SDS011;5616;42.692;23.312;2022-11-13T14:06:29;21.37;;;17.27;;
11123;SDS011;5616;42.692;23.312;2022-11-13T14:09:17;24.97;;;18.90;;
11123;SDS011;5616;42.692;23.312;2022-11-13T14:12:05;18.90;;;16.53;;
11123;SDS011;5616;42.692;23.312;2022-11-13T14:15:02;22.33;;;17.43;;
11123;SDS011;5616;42.692;23.312;2022-11-13T14:17:48;20.43;;;16.67;;
11123;SDS011;5616;42.692;23.312;2022-11-13T14:20:39;20.97;;;16.90;;
11123;SDS011;5616;42.692;23.312;2022-11-13T14:23:30;18.83;;;16.13;;
11123;SDS011;5616;42.692;23.312;2022-11-13T14:26:21;20.13;;;16.80;;
11123;SDS011;5616;42.692;23.312;2022-11-13T14:29:10;19.67;;;16.67;;
11123;SDS011;5616;42.692;23.312;2022-11-13T14:32:06;19.43;;;16.27;;
11123;SDS011;5616;42.692;23.312;2022-11-13T14:34:57;20.90;;;17.83;;
11123;SDS011;5616;42.692;23.312;2022-11-13T14:37:45;23.33;;;17.70;;
11123;SDS011;5616;42.692;23.312;2022-11-13T14:40:31;37.33;;;27.43;;
11123;SDS011;5616;42.692;23.312;2022-11-13T14:43:21;26.30;;;20.20;;
11123;SDS011;5616;42.692;23.312;2022-11-13T14:46:29;21.77;;;17.73;;
11123;SDS011;5616;42.692;23.312;2022-11-13T14:49:24;19.57;;;17.43;;
11123;SDS011;5616;42.692;23.312;2022-11-13T14:52:18;18.40;;;16.37;;
11123;SDS011;5616;42.692;23.312;2022-11-13T14:55:05;22.27;;;18.13;;
11123;SDS011;5616;42.692;23.312;2022-11-13T14:57:51;21.70;;;18.03;;
11123;SDS011;5616;42.692;23.312;2022-11-13T15:00:38;22.87;;;19.40;;
11123;SDS011;5616;42.692;23.312;2022-11-13T15:03:24;21.87;;;18.10;;
11123;SDS011;5616;42.692;23.312;2022-11-13T15:06:11;22.60;;;18.10;;
11123;SDS011;5616;42.692;23.312;2022-11-13T15:09:02;22.37;;;19.07;;
11123;SDS011;5616;42.692;23.312;2022-11-13T15:11:53;25.50;;;19.13;;
11123;SDS011;5616;42.692;23.312;2022-11-13T15:14:38;23.70;;;19.27;;
11123;SDS011;5616;42.692;23.312;2022-11-13T15:17:27;25.57;;;19.57;;
11123;SDS011;5616;42.692;23.312;2022-11-13T15:20:13;25.97;;;19.27;;
11123;SDS011;5616;42.692;23.312;2022-11-13T15:23:00;24.37;;;19.27;;
11123;SDS011;5616;42.692;23.312;2022-11-13T15:25:46;26.50;;;20.80;;
11123;SDS011;5616;42.692;23.312;2022-11-13T15:28:31;25.83;;;20.40;;
11123;SDS011;5616;42.692;23.312;2022-11-13T15:31:17;23.50;;;18.97;;
11123;SDS011;5616;42.692;23.312;2022-11-13T15:34:07;30.27;;;21.30;;
11123;SDS011;5616;42.692;23.312;2022-11-13T15:36:54;25.57;;;20.70;;
11123;SDS011;5616;42.692;23.312;2022-11-13T15:39:39;27.53;;;21.17;;
11123;SDS011;5616;42.692;23.312;2022-11-13T15:42:26;26.53;;;21.60;;
11123;SDS011;5616;42.692;23.312;2022-11-13T15:45:14;27.17;;;21.07;;
11123;SDS011;5616;42.692;23.312;2022-11-13T15:48:00;25.73;;;19.53;;
11123;SDS011;5616;42.692;23.312;2022-11-13T15:50:47;25.23;;;19.70;;
11123;SDS011;5616;42.692;23.312;2022-11-13T15:53:32;27.43;;;20.33;;
11123;SDS011;5616;42.692;23.312;2022-11-13T15:56:18;30.53;;;21.93;;
11123;SDS011;5616;42.692;23.312;2022-11-13T15:59:04;26.87;;;20.27;;
11123;SDS011;5616;42.692;23.312;2022-11-13T16:01:49;27.43;;;21.60;;
11123;SDS011;5616;42.692;23.312;2022-11-13T16:04:36;30.50;;;21.40;;
11123;SDS011;5616;42.692;23.312;2022-11-13T16:07:25;27.13;;;20.87;;
11123;SDS011;5616;42.692;23.312;2022-11-13T16:10:14;26.50;;;21.30;;
11123;SDS011;5616;42.692;23.312;2022-11-13T16:12:59;28.47;;;21.37;;
11123;SDS011;5616;42.692;23.312;2022-11-13T16:15:46;29.10;;;21.87;;
11123;SDS011;5616;42.692;23.312;2022-11-13T16:18:32;29.57;;;21.23;;
11123;SDS011;5616;42.692;23.312;2022-11-13T16:21:19;26.50;;;20.80;;
11123;SDS011;5616;42.692;23.312;2022-11-13T16:24:07;28.60;;;22.20;;
11123;SDS011;5616;42.692;23.312;2022-11-13T16:26:55;28.93;;;22.60;;
11123;SDS011;5616;42.692;23.312;2022-11-13T16:29:43;30.57;;;22.10;;
11123;SDS011;5616;42.692;23.312;2022-11-13T16:32:29;29.60;;;22.00;;
11123;SDS011;5616;42.692;23.312;2022-11-13T16:35:15;27.37;;;21.27;;
11123;SDS011;5616;42.692;23.312;2022-11-13T16:38:02;28.00;;;21.40;;
11123;SDS011;5616;42.692;23.312;2022-11-13T16:40:49;30.77;;;22.23;;
11123;SDS011;5616;42.692;23.312;2022-11-13T16:43:34;31.30;;;22.00;;
11123;SDS011;5616;42.692;23.312;2022-11-13T16:46:22;29.63;;;21.97;;